Time;durP1;ratioP1;P1;durP2;ratioP2;P2;SDS_P1;SDS_P2;PMS_P1;PMS_P2;Temp;Humidity;BMP_temperature;BMP_pressure;BME280_temperature;BME280_humidity;BME280_pressure;Samples;Min_cycle;Max_cycle;Signal;HPM_P1;HPM_P2
2023/04/23 00:01:48;;;;;;;11.80;10.60;;;11.20;1.00;;;;;;5113832;28;20276;-74
2023/04/23 00:04:17;;;;;;;15.60;11.27;;;11.20;1.00;;;;;;5113984;28;20232;-74
2023/04/23 00:06:46;;;;;;;11.18;10.07;;;11.20;1.00;;;;;;5113470;28;20204;-75
2023/04/23 00:09:16;;;;;;;11.87;10.60;;;11.20;1.00;;;;;;5113870;28;20228;-74
2023/04/23 00:11:43;;;;;;;13.02;10.80;;;11.30;1.00;;;;;;5113985;28;20220;-74
2023/04/23 00:14:11;;;;;;;17.38;11.82;;;11.30;1.00;;;;;;5113755;28;20247;-74
2023/04/23 00:16:39;;;;;;;16.40;11.60;;;11.30;1.00;;;;;;5113864;28;20224;-75
2023/04/23 00:19:06;;;;;;;21.23;11.57;;;11.30;1.00;;;;;;5113583;28;20212;-74
2023/04/23 00:21:34;;;;;;;17.80;11.05;;;11.20;1.00;;;;;;5113770;28;20236;-74
2023/04/23 00:24:00;;;;;;;14.87;11.30;;;11.20;1.00;;;;;;5113289;28;20244;-72
2023/04/23 00:26:29;;;;;;;18.05;10.80;;;11.30;1.00;;;;;;5113370;28;20680;-72
2023/04/23 00:28:56;;;;;;;25.35;11.27;;;11.20;1.00;;;;;;5113317;28;20236;-75
2023/04/23 00:31:23;;;;;;;34.85;10.95;;;11.10;1.00;;;;;;5113257;28;20247;-74
2023/04/23 00:33:50;;;;;;;14.07;10.83;;;11.10;1.00;;;;;;5112958;28;20201;-75
2023/04/23 00:36:17;;;;;;;20.30;10.05;;;11.20;1.00;;;;;;5113190;28;20295;-74
2023/04/23 00:38:44;;;;;;;11.30;10.10;;;11.20;1.00;;;;;;5112846;28;20205;-72
2023/04/23 00:41:11;;;;;;;12.05;9.60;;;11.30;1.00;;;;;;5113170;28;20676;-74
2023/04/23 00:43:40;;;;;;;11.00;9.88;;;11.30;1.00;;;;;;5113540;28;20266;-73
2023/04/23 00:46:07;;;;;;;11.88;9.85;;;11.30;1.00;;;;;;5113404;28;20628;-75
2023/04/23 00:48:34;;;;;;;10.35;9.10;;;11.20;1.00;;;;;;5113144;28;20209;-72
2023/04/23 00:51:05;;;;;;;12.52;9.00;;;11.20;1.00;;;;;;5112673;28;20296;-73
2023/04/23 00:53:32;;;;;;;10.75;8.48;;;11.20;1.00;;;;;;5113100;28;20241;-74
2023/04/23 00:56:01;;;;;;;10.18;7.00;;;11.10;1.00;;;;;;5112304;28;20717;-72
2023/04/23 00:58:29;;;;;;;10.02;8.65;;;11.00;1.00;;;;;;5113011;28;20323;-72
2023/04/23 01:00:58;;;;;;;9.50;8.02;;;10.80;1.00;;;;;;5112603;28;20197;-72
2023/04/23 01:03:28;;;;;;;10.57;9.25;;;10.80;1.00;;;;;;5112656;28;20293;-73
2023/04/23 01:05:55;;;;;;;9.10;8.20;;;11.00;1.00;;;;;;5112373;28;20255;-73
2023/04/23 01:08:25;;;;;;;9.32;8.40;;;11.00;1.00;;;;;;5112278;28;20293;-73
2023/04/23 01:10:53;;;;;;;11.73;9.10;;;11.00;1.00;;;;;;5112390;28;20213;-73
2023/04/23 01:13:21;;;;;;;7.85;6.95;;;11.00;1.00;;;;;;5112726;28;20197;-74
2023/04/23 01:15:48;;;;;;;10.00;7.60;;;11.00;1.00;;;;;;5111942;28;20204;-74
2023/04/23 01:18:18;;;;;;;7.93;6.97;;;10.90;1.00;;;;;;5112347;28;20743;-73
2023/04/23 01:20:45;;;;;;;9.05;8.07;;;10.90;1.00;;;;;;5109098;27;20274;-73
2023/04/23 01:23:14;;;;;;;7.30;6.60;;;10.80;1.00;;;;;;5112092;28;20232;-74
2023/04/23 01:25:41;;;;;;;7.97;6.70;;;10.70;1.00;;;;;;5112188;28;20232;-72
2023/04/23 01:28:08;;;;;;;8.67;6.10;;;10.70;1.00;;;;;;5112252;28;20243;-73
2023/04/23 01:30:36;;;;;;;7.50;6.80;;;10.60;1.00;;;;;;5112202;28;20240;-73
2023/04/23 01:33:04;;;;;;;9.17;6.40;;;10.60;1.00;;;;;;5111763;28;20236;-73
2023/04/23 01:35:32;;;;;;;7.80;6.77;;;10.50;1.00;;;;;;5112036;28;20733;-72
2023/04/23 01:38:00;;;;;;;9.15;7.75;;;10.50;1.00;;;;;;5111502;28;20351;-73
2023/04/23 01:40:28;;;;;;;7.57;6.80;;;10.60;1.00;;;;;;5111805;28;20228;-72
2023/04/23 01:42:56;;;;;;;7.47;6.77;;;10.50;1.00;;;;;;5111492;28;20239;-73
2023/04/23 01:45:23;;;;;;;8.27;7.00;;;10.50;1.00;;;;;;5111690;28;20200;-73
2023/04/23 01:47:51;;;;;;;7.07;6.10;;;10.50;1.00;;;;;;5111669;28;20201;-73
2023/04/23 01:50:18;;;;;;;6.72;6.05;;;10.30;1.00;;;;;;5111898;28;20205;-73
2023/04/23 01:52:45;;;;;;;6.60;5.90;;;10.40;1.00;;;;;;5111199;28;20680;-73
2023/04/23 01:55:13;;;;;;;7.90;6.20;;;10.40;1.00;;;;;;5111688;28;20205;-73
2023/04/23 01:57:41;;;;;;;11.00;6.53;;;10.40;1.00;;;;;;5111702;28;20319;-72
2023/04/23 02:00:10;;;;;;;7.63;6.20;;;10.40;1.00;;;;;;5111617;28;20240;-74
2023/04/23 02:02:37;;;;;;;7.67;6.40;;;10.40;1.00;;;;;;5112056;28;20205;-74
2023/04/23 02:05:09;;;;;;;7.10;6.35;;;10.40;1.00;;;;;;5111712;28;20197;-73
2023/04/23 02:07:36;;;;;;;8.10;7.30;;;10.40;1.00;;;;;;5111830;28;20232;-73
2023/04/23 02:10:04;;;;;;;6.67;5.90;;;10.40;1.00;;;;;;5111153;28;20196;-73
2023/04/23 02:12:31;;;;;;;7.80;7.00;;;10.40;1.00;;;;;;5111210;28;20244;-74
2023/04/23 02:14:59;;;;;;;8.50;6.67;;;10.40;1.00;;;;;;5110590;28;20240;-74
2023/04/23 02:17:28;;;;;;;7.53;6.70;;;10.40;1.00;;;;;;5111518;28;20239;-73
2023/04/23 02:19:55;;;;;;;8.10;7.30;;;10.40;1.00;;;;;;5110703;28;20239;-72
2023/04/23 02:22:24;;;;;;;7.63;6.87;;;10.30;1.00;;;;;;5111088;28;20209;-73
2023/04/23 02:24:51;;;;;;;7.10;6.40;;;10.40;1.00;;;;;;5110999;28;20249;-73
2023/04/23 02:27:18;;;;;;;8.10;6.60;;;10.40;1.00;;;;;;5111179;28;20211;-73
2023/04/23 02:29:45;;;;;;;7.37;6.67;;;10.40;1.00;;;;;;5110734;28;20329;-72
2023/04/23 02:32:13;;;;;;;6.57;5.60;;;10.20;1.00;;;;;;5110900;28;20205;-73
2023/04/23 02:34:40;;;;;;;7.17;6.13;;;10.30;1.00;;;;;;5111200;28;20733;-72
2023/04/23 02:37:07;;;;;;;5.87;5.20;;;10.40;1.00;;;;;;5111504;28;20251;-72
2023/04/23 02:39:34;;;;;;;6.10;5.50;;;10.40;1.00;;;;;;5111398;28;20237;-72
2023/04/23 02:42:01;;;;;;;5.40;4.90;;;10.30;1.00;;;;;;5110597;28;20680;-72
2023/04/23 02:44:28;;;;;;;6.57;5.47;;;10.30;1.00;;;;;;5110777;28;20236;-73
2023/04/23 02:46:56;;;;;;;5.63;5.03;;;10.30;1.00;;;;;;5110909;28;20228;-73
2023/04/23 02:49:24;;;;;;;6.60;5.53;;;10.30;1.00;;;;;;5110992;28;20212;-73
2023/04/23 02:51:51;;;;;;;7.57;6.60;;;10.30;1.00;;;;;;5111006;28;20205;-72
2023/04/23 02:54:18;;;;;;;7.10;6.40;;;10.20;1.00;;;;;;5110827;28;20254;-72
2023/04/23 02:56:45;;;;;;;6.00;5.40;;;10.20;1.00;;;;;;5110808;28;20239;-73
2023/04/23 02:59:12;;;;;;;7.17;5.73;;;10.20;1.00;;;;;;5110911;28;20284;-72
2023/04/23 03:01:40;;;;;;;6.43;5.83;;;10.20;1.00;;;;;;5110912;28;20722;-72
2023/04/23 03:04:07;;;;;;;6.80;6.17;;;10.20;1.00;;;;;;5111047;28;20197;-73
2023/04/23 03:06:36;;;;;;;7.13;6.43;;;10.10;1.00;;;;;;5110936;28;20224;-73
2023/04/23 03:09:03;;;;;;;6.53;5.90;;;10.00;1.00;;;;;;5110993;28;20696;-73
2023/04/23 03:11:30;;;;;;;8.67;6.87;;;10.00;1.00;;;;;;5110821;28;20721;-74
2023/04/23 03:13:57;;;;;;;7.57;6.17;;;10.10;1.00;;;;;;5110458;28;20204;-73
2023/04/23 03:16:24;;;;;;;6.33;5.73;;;10.00;1.00;;;;;;5110981;28;20247;-73
2023/04/23 03:18:51;;;;;;;6.67;5.93;;;10.00;1.00;;;;;;5108771;28;20704;-72
2023/04/23 03:21:18;;;;;;;6.57;5.57;;;10.00;1.00;;;;;;5110863;28;20239;-73
2023/04/23 03:23:46;;;;;;;6.27;5.67;;;10.10;1.00;;;;;;5110480;28;20205;-73
2023/04/23 03:26:13;;;;;;;7.33;5.67;;;10.00;1.00;;;;;;5110763;28;20240;-72
2023/04/23 03:28:40;;;;;;;6.23;5.73;;;10.10;1.00;;;;;;5110951;28;20211;-73
2023/04/23 03:31:07;;;;;;;7.10;5.23;;;10.20;1.00;;;;;;5111031;28;20205;-73
2023/04/23 03:33:34;;;;;;;5.80;5.20;;;10.20;1.00;;;;;;5114630;28;20672;-73
2023/04/23 03:36:01;;;;;;;5.60;4.73;;;10.10;1.00;;;;;;5114133;28;20252;-73
2023/04/23 03:38:28;;;;;;;5.73;5.13;;;10.10;1.00;;;;;;5114412;28;20727;-73
2023/04/23 03:40:56;;;;;;;4.40;4.00;;;10.10;1.00;;;;;;5114006;28;20229;-73
2023/04/23 03:43:24;;;;;;;4.60;4.20;;;10.00;1.00;;;;;;5114337;28;20248;-73
2023/04/23 03:45:51;;;;;;;5.13;4.60;;;10.00;99.90;;;;;;5114102;28;20201;-73
2023/04/23 03:48:19;;;;;;;4.60;4.20;;;9.90;99.90;;;;;;5114257;28;20236;-74
2023/04/23 03:50:46;;;;;;;4.63;4.20;;;9.90;99.90;;;;;;5114115;28;20637;-74
2023/04/23 03:53:13;;;;;;;4.07;3.77;;;9.90;99.90;;;;;;5114195;28;20258;-73
2023/04/23 03:55:40;;;;;;;4.87;4.37;;;9.80;99.90;;;;;;5114024;28;20243;-73
2023/04/23 03:58:08;;;;;;;5.53;5.03;;;9.90;99.90;;;;;;5114381;28;20316;-73
2023/04/23 04:00:35;;;;;;;5.43;4.43;;;9.90;99.90;;;;;;5114298;28;20291;-73
2023/04/23 04:03:03;;;;;;;4.60;4.20;;;9.80;99.90;;;;;;5113636;28;20250;-73
2023/04/23 04:05:29;;;;;;;4.97;4.50;;;9.80;99.90;;;;;;5113891;28;20209;-73
2023/04/23 04:07:56;;;;;;;5.63;4.63;;;9.80;99.90;;;;;;5113569;28;20239;-73
2023/04/23 04:10:23;;;;;;;4.20;3.70;;;9.80;99.90;;;;;;5113719;28;20341;-73
2023/04/23 04:12:50;;;;;;;5.73;5.23;;;9.70;99.90;;;;;;5113379;28;20625;-73
2023/04/23 04:15:19;;;;;;;4.90;4.33;;;9.70;99.90;;;;;;5113783;28;20201;-73
2023/04/23 04:17:46;;;;;;;4.57;4.17;;;9.70;99.90;;;;;;5113224;28;20319;-73
2023/04/23 04:20:13;;;;;;;5.13;4.63;;;9.70;99.90;;;;;;5113767;28;20633;-73
2023/04/23 04:22:40;;;;;;;4.17;3.77;;;9.70;99.90;;;;;;5113995;28;20243;-73
2023/04/23 04:25:08;;;;;;;4.83;4.33;;;9.70;99.90;;;;;;5113707;28;20241;-73
2023/04/23 04:27:36;;;;;;;4.60;4.20;;;9.70;99.90;;;;;;5113898;28;20207;-73
2023/04/23 04:30:04;;;;;;;4.40;3.30;;;9.60;99.90;;;;;;5113150;28;20211;-73
2023/04/23 04:32:33;;;;;;;4.60;4.20;;;9.60;99.90;;;;;;5113118;28;20196;-73
2023/04/23 04:35:01;;;;;;;4.60;3.90;;;9.60;99.90;;;;;;5113070;28;20240;-73
2023/04/23 04:37:28;;;;;;;4.67;4.27;;;9.60;99.90;;;;;;5113294;28;20669;-72
2023/04/23 04:39:55;;;;;;;4.90;4.50;;;9.40;99.90;;;;;;5112752;28;20711;-73
2023/04/23 04:42:23;;;;;;;4.50;4.10;;;9.40;99.90;;;;;;5113407;28;20253;-73
2023/04/23 04:44:51;;;;;;;4.43;3.90;;;9.50;99.90;;;;;;5112145;28;20283;-73
2023/04/23 04:47:19;;;;;;;4.67;3.67;;;9.50;99.90;;;;;;5113420;28;20261;-74
2023/04/23 04:49:47;;;;;;;5.10;4.53;;;9.40;99.90;;;;;;5112989;28;20209;-73
2023/04/23 04:52:14;;;;;;;4.37;3.73;;;9.40;99.90;;;;;;5113188;28;20200;-74
2023/04/23 04:54:41;;;;;;;4.30;3.97;;;9.40;99.90;;;;;;5112367;28;20204;-73
2023/04/23 04:57:08;;;;;;;4.73;4.33;;;9.50;99.90;;;;;;5113093;28;20616;-73
2023/04/23 04:59:35;;;;;;;4.00;3.60;;;9.50;99.90;;;;;;5112654;28;20772;-73
2023/04/23 05:02:02;;;;;;;3.97;3.40;;;9.50;99.90;;;;;;5112541;28;20243;-73
2023/04/23 05:04:29;;;;;;;4.73;4.33;;;9.50;99.90;;;;;;5112304;28;20640;-73
2023/04/23 05:06:57;;;;;;;4.43;4.03;;;9.50;99.90;;;;;;5112356;28;20201;-73
2023/04/23 05:09:25;;;;;;;4.30;3.90;;;9.50;99.90;;;;;;5112310;28;20197;-73
2023/04/23 05:11:52;;;;;;;4.97;4.13;;;9.40;99.90;;;;;;5112012;28;20240;-73
2023/04/23 05:14:19;;;;;;;4.13;3.73;;;9.50;99.90;;;;;;5112780;28;20196;-73
2023/04/23 05:16:46;;;;;;;4.27;3.87;;;9.50;99.90;;;;;;5112180;28;20608;-73
2023/04/23 05:19:13;;;;;;;4.90;3.97;;;9.40;99.90;;;;;;5111167;28;20280;-73
2023/04/23 05:21:40;;;;;;;5.00;4.50;;;9.40;99.90;;;;;;5112479;28;20237;-74
2023/04/23 05:24:08;;;;;;;4.27;3.87;;;9.40;99.90;;;;;;5112596;28;20245;-74
2023/04/23 05:26:35;;;;;;;4.37;3.73;;;9.40;99.90;;;;;;5112608;28;20229;-73
2023/04/23 05:29:02;;;;;;;4.00;3.60;;;9.50;99.90;;;;;;5111980;28;20549;-74
2023/04/23 05:31:30;;;;;;;3.80;3.50;;;9.60;99.90;;;;;;5112429;28;20240;-73
2023/04/23 05:33:56;;;;;;;3.33;3.00;;;9.70;99.90;;;;;;5112010;28;20228;-73
2023/04/23 05:36:23;;;;;;;4.43;3.30;;;9.80;99.90;;;;;;5112035;28;20251;-73
2023/04/23 05:38:50;;;;;;;6.10;4.13;;;9.80;99.90;;;;;;5111454;28;20220;-73
2023/04/23 05:41:18;;;;;;;4.57;3.27;;;9.80;99.90;;;;;;5112072;28;20612;-73
2023/04/23 05:43:45;;;;;;;4.10;3.70;;;9.80;99.90;;;;;;5111586;28;20253;-73
2023/04/23 05:46:12;;;;;;;3.97;3.57;;;9.70;99.90;;;;;;5112240;28;20293;-73
2023/04/23 05:48:39;;;;;;;4.40;4.00;;;9.70;99.90;;;;;;5112287;28;20281;-73
2023/04/23 05:51:06;;;;;;;4.20;3.33;;;9.70;99.90;;;;;;5112313;28;20206;-73
2023/04/23 05:53:33;;;;;;;2.90;2.33;;;9.90;99.90;;;;;;5111637;28;20243;-73
2023/04/23 05:56:00;;;;;;;3.63;3.10;;;9.80;99.90;;;;;;5109429;28;20636;-74
2023/04/23 05:58:28;;;;;;;3.53;3.23;;;9.80;99.90;;;;;;5111912;28;20263;-74
2023/04/23 06:00:56;;;;;;;4.10;3.33;;;9.80;99.90;;;;;;5111326;28;20205;-76
2023/04/23 06:03:23;;;;;;;4.63;3.30;;;10.00;99.90;;;;;;5111778;28;20201;-75
2023/04/23 06:05:50;;;;;;;4.13;3.07;;;10.40;99.90;;;;;;5110689;28;20291;-75
2023/04/23 06:08:17;;;;;;;3.83;3.37;;;10.50;99.90;;;;;;5111292;28;20262;-74
2023/04/23 06:10:44;;;;;;;3.83;3.40;;;10.50;99.90;;;;;;5110960;28;20249;-74
2023/04/23 06:13:11;;;;;;;4.10;3.30;;;10.30;99.90;;;;;;5111476;28;20233;-74
2023/04/23 06:15:39;;;;;;;4.83;3.03;;;10.30;99.90;;;;;;5111925;28;20203;-74
2023/04/23 06:18:06;;;;;;;2.93;2.60;;;10.30;99.90;;;;;;5111755;28;20668;-73
2023/04/23 06:20:33;;;;;;;4.17;3.30;;;10.50;99.90;;;;;;5111118;28;20236;-73
2023/04/23 06:23:01;;;;;;;3.73;3.30;;;10.60;99.90;;;;;;5111276;28;20236;-74
2023/04/23 06:25:28;;;;;;;2.80;2.60;;;10.60;99.90;;;;;;5111619;28;20239;-74
2023/04/23 06:27:56;;;;;;;3.87;3.47;;;10.50;99.90;;;;;;5107838;27;20201;-74
2023/04/23 06:30:23;;;;;;;4.90;4.50;;;10.60;99.90;;;;;;5101573;28;20806;-74
2023/04/23 06:32:52;;;;;;;3.93;3.63;;;10.70;99.90;;;;;;5110160;28;20639;-75
2023/04/23 06:35:19;;;;;;;4.40;3.80;;;11.00;99.90;;;;;;5110909;28;20239;-74
2023/04/23 06:37:46;;;;;;;4.03;3.72;;;11.20;99.90;;;;;;5110840;28;20203;-75
2023/04/23 06:40:13;;;;;;;3.97;3.57;;;11.30;99.90;;;;;;5111232;28;20264;-75
2023/04/23 06:42:40;;;;;;;3.50;3.00;;;11.30;99.90;;;;;;5111160;28;20684;-75
2023/04/23 06:45:07;;;;;;;4.33;4.00;;;11.40;99.90;;;;;;5111489;28;20285;-75
2023/04/23 06:47:34;;;;;;;3.00;2.70;;;11.50;99.90;;;;;;5111378;28;20732;-74
2023/04/23 06:50:04;;;;;;;3.70;3.40;;;11.60;99.90;;;;;;5110847;28;20236;-75
2023/04/23 06:52:31;;;;;;;4.25;3.05;;;11.60;99.90;;;;;;5111257;28;20656;-74
2023/04/23 06:54:58;;;;;;;3.47;3.17;;;11.60;99.90;;;;;;5110842;28;20200;-74
2023/04/23 06:57:25;;;;;;;3.08;2.88;;;11.50;99.90;;;;;;5111106;28;20634;-74
2023/04/23 06:59:52;;;;;;;3.22;3.03;;;11.50;99.90;;;;;;5110662;28;20260;-74
2023/04/23 07:02:19;;;;;;;3.38;3.08;;;11.60;99.90;;;;;;5110758;28;20208;-74
2023/04/23 07:04:46;;;;;;;4.10;3.13;;;11.80;99.90;;;;;;5117441;28;20280;-75
2023/04/23 07:07:14;;;;;;;3.33;3.00;;;11.90;99.90;;;;;;5112321;28;20200;-75
2023/04/23 07:09:41;;;;;;;4.28;3.10;;;12.00;99.90;;;;;;5114650;28;20676;-75
2023/04/23 07:12:08;;;;;;;3.23;2.93;;;12.10;99.90;;;;;;5115198;28;20247;-75
2023/04/23 07:14:35;;;;;;;4.03;3.17;;;12.30;99.90;;;;;;5115200;28;20232;-76
2023/04/23 07:17:02;;;;;;;4.40;3.53;;;12.50;99.90;;;;;;5114186;28;20631;-75
2023/04/23 07:19:29;;;;;;;3.30;3.00;;;12.70;99.90;;;;;;5114661;28;20618;-75
2023/04/23 07:21:56;;;;;;;2.95;2.67;;;12.90;99.90;;;;;;5114591;28;20224;-75
2023/04/23 07:24:25;;;;;;;2.63;2.42;;;13.10;99.90;;;;;;5114675;28;20223;-76
2023/04/23 07:26:52;;;;;;;2.70;2.50;;;13.40;99.90;;;;;;5114420;28;20632;-76
2023/04/23 07:29:19;;;;;;;2.58;2.38;;;13.50;99.90;;;;;;5114517;28;20236;-75
2023/04/23 07:31:47;;;;;;;3.13;2.47;;;13.20;99.90;;;;;;5114496;28;20276;-76
2023/04/23 07:34:14;;;;;;;3.40;1.88;;;13.20;99.90;;;;;;5114364;28;20201;-80
2023/04/23 07:36:41;;;;;;;2.08;1.98;;;13.10;99.90;;;;;;5114316;28;20240;-76
2023/04/23 07:39:08;;;;;;;2.15;1.83;;;13.10;99.90;;;;;;5114676;28;20722;-76
2023/04/23 07:41:37;;;;;;;2.10;1.95;;;13.30;99.90;;;;;;5113880;27;20233;-77
2023/04/23 07:44:04;;;;;;;2.67;2.47;;;13.60;99.90;;;;;;5108600;27;20687;-76
2023/04/23 07:46:31;;;;;;;2.28;2.08;;;13.70;99.90;;;;;;5109353;27;20205;-77
2023/04/23 07:48:58;;;;;;;3.60;2.30;;;13.70;99.90;;;;;;5113192;27;20243;-77
2023/04/23 07:51:25;;;;;;;2.35;2.15;;;13.70;99.90;;;;;;5114200;28;20676;-77
2023/04/23 07:53:53;;;;;;;3.05;2.20;;;13.80;99.90;;;;;;5114010;28;20209;-77
2023/04/23 07:56:21;;;;;;;2.97;2.67;;;13.90;99.90;;;;;;5112429;28;20574;-79
2023/04/23 07:58:49;;;;;;;2.20;2.00;;;14.30;99.90;;;;;;5113663;28;20211;-77
2023/04/23 08:01:16;;;;;;;1.77;1.67;;;14.50;99.90;;;;;;5114212;28;20255;-77
2023/04/23 08:03:43;;;;;;;1.73;1.63;;;14.30;99.90;;;;;;5113487;28;20247;-76
2023/04/23 08:06:11;;;;;;;2.85;1.77;;;14.00;99.90;;;;;;5113743;28;20240;-77
2023/04/23 08:08:38;;;;;;;3.45;1.90;;;14.00;99.90;;;;;;5113991;28;20200;-77
2023/04/23 08:11:05;;;;;;;2.22;2.03;;;14.20;99.90;;;;;;5113495;28;20220;-76
2023/04/23 08:13:33;;;;;;;2.50;1.80;;;14.70;99.90;;;;;;5113571;28;20743;-76
2023/04/23 08:16:01;;;;;;;1.98;1.75;;;14.80;99.90;;;;;;5113498;28;20247;-75
2023/04/23 08:18:28;;;;;;;1.67;1.58;;;15.20;99.90;;;;;;5110904;28;20212;-77
2023/04/23 08:20:56;;;;;;;2.72;1.50;;;15.40;99.90;;;;;;5102865;28;20691;-77
2023/04/23 08:23:23;;;;;;;3.22;2.08;;;15.80;99.90;;;;;;5113212;28;20254;-75
2023/04/23 08:25:50;;;;;;;1.92;1.73;;;15.90;99.90;;;;;;5111252;28;20232;-75
2023/04/23 08:28:18;;;;;;;2.28;1.98;;;16.00;99.90;;;;;;5112809;28;20713;-74
2023/04/23 08:30:45;;;;;;;2.45;1.85;;;16.10;99.90;;;;;;5112320;28;20690;-75
2023/04/23 08:33:13;;;;;;;2.53;2.33;;;15.80;99.90;;;;;;5113603;28;20239;-74
2023/04/23 08:35:40;;;;;;;1.90;1.70;;;15.90;99.90;;;;;;5113434;28;20236;-75
2023/04/23 08:38:07;;;;;;;1.55;1.40;;;16.00;99.90;;;;;;5113596;28;20244;-75
2023/04/23 08:40:37;;;;;;;1.30;1.20;;;16.10;99.90;;;;;;5113553;28;20272;-75
2023/04/23 08:43:10;;;;;;;1.38;1.27;;;16.30;99.90;;;;;;5112888;28;20201;-75
2023/04/23 08:45:40;;;;;;;1.20;1.10;;;16.70;99.90;;;;;;5113130;28;20567;-75
2023/04/23 08:48:09;;;;;;;1.20;0.70;;;17.00;99.90;;;;;;5113763;28;20284;-74
2023/04/23 08:50:39;;;;;;;2.13;1.25;;;17.40;99.90;;;;;;5113035;28;20250;-74
2023/04/23 08:53:07;;;;;;;1.10;1.00;;;17.60;99.90;;;;;;5113200;28;20204;-75
2023/04/23 08:55:35;;;;;;;2.05;1.63;;;17.90;99.90;;;;;;5113335;28;20572;-76
2023/04/23 08:58:05;;;;;;;1.50;1.38;;;17.80;99.90;;;;;;5112728;28;20209;-76
2023/04/23 09:00:32;;;;;;;2.17;1.90;;;17.60;99.90;;;;;;5112722;28;20228;-75
2023/04/23 09:02:59;;;;;;;1.35;1.17;;;17.70;99.90;;;;;;5111449;28;20232;-75
2023/04/23 09:05:27;;;;;;;1.27;1.17;;;17.80;99.90;;;;;;5112984;28;20240;-75
2023/04/23 09:07:58;;;;;;;1.10;0.98;;;17.90;99.90;;;;;;5112192;28;20208;-75
2023/04/23 09:10:25;;;;;;;1.65;1.10;;;17.90;99.90;;;;;;5112668;28;20209;-74
2023/04/23 09:12:52;;;;;;;2.10;1.20;;;18.10;99.90;;;;;;5112326;28;20616;-75
2023/04/23 09:15:19;;;;;;;1.08;0.98;;;18.30;99.90;;;;;;5112414;28;20257;-75
2023/04/23 09:17:48;;;;;;;1.85;1.23;;;18.30;99.90;;;;;;5112059;28;20211;-76
2023/04/23 09:20:17;;;;;;;0.98;0.95;;;18.80;99.90;;;;;;5112554;28;20240;-75
2023/04/23 09:22:46;;;;;;;0.95;0.95;;;19.30;99.90;;;;;;5112269;28;20300;-76
2023/04/23 09:25:17;;;;;;;0.82;0.65;;;20.10;99.90;;;;;;5112573;28;20574;-75
2023/04/23 09:27:45;;;;;;;1.42;0.85;;;20.60;99.90;;;;;;5111948;28;20258;-76
2023/04/23 09:30:13;;;;;;;2.55;0.95;;;20.60;99.90;;;;;;5111621;28;20205;-76
2023/04/23 09:32:42;;;;;;;1.08;0.98;;;20.50;99.90;;;;;;5112200;28;20212;-76
2023/04/23 09:35:10;;;;;;;0.95;0.90;;;20.20;99.90;;;;;;5112665;28;20239;-75
2023/04/23 09:37:41;;;;;;;0.95;0.95;;;20.40;99.90;;;;;;5111604;28;20235;-75
2023/04/23 09:40:09;;;;;;;1.02;0.90;;;20.40;99.90;;;;;;5112331;28;20239;-75
2023/04/23 09:42:38;;;;;;;1.15;1.05;;;20.40;99.90;;;;;;5112035;28;20244;-76
2023/04/23 09:45:07;;;;;;;0.80;0.80;;;20.90;99.90;;;;;;5112010;28;20204;-75
2023/04/23 09:47:35;;;;;;;1.08;0.88;;;21.40;99.90;;;;;;5112555;28;20201;-75
2023/04/23 09:50:02;;;;;;;1.20;1.10;;;21.60;99.90;;;;;;5111767;28;20216;-75
2023/04/23 09:52:32;;;;;;;0.75;0.70;;;21.90;99.90;;;;;;5111842;28;20652;-75
2023/04/23 09:55:04;;;;;;;0.50;0.50;;;21.80;99.90;;;;;;5111460;28;20215;-74
2023/04/23 09:57:31;;;;;;;1.52;0.68;;;21.90;99.90;;;;;;5111582;28;20200;-74
2023/04/23 10:00:12;;;;;;;0.80;0.80;;;22.60;99.90;;;;;;5111110;28;20263;-76
2023/04/23 10:02:39;;;;;;;1.10;0.68;;;21.70;99.90;;;;;;5111889;28;20201;-75
2023/04/23 10:05:15;;;;;;;1.33;0.80;;;21.20;99.90;;;;;;5111978;28;20623;-75
2023/04/23 10:07:44;;;;;;;1.83;1.02;;;20.60;99.90;;;;;;5111212;28;20207;-74
2023/04/23 10:10:11;;;;;;;0.88;0.70;;;20.30;99.90;;;;;;5111405;28;20205;-75
2023/04/23 10:12:38;;;;;;;1.15;0.60;;;21.80;99.90;;;;;;5111803;28;20644;-74
2023/04/23 10:15:09;;;;;;;1.95;0.52;;;23.00;99.90;;;;;;5111400;28;20240;-74
2023/04/23 10:17:36;;;;;;;1.65;0.82;;;22.40;99.90;;;;;;5111659;28;20212;-73
2023/04/23 10:20:04;;;;;;;1.33;0.85;;;22.10;99.90;;;;;;5110934;28;20264;-75
2023/04/23 10:22:33;;;;;;;1.25;1.15;;;21.80;99.90;;;;;;5111353;28;20208;-75
2023/04/23 10:25:05;;;;;;;1.10;1.00;;;21.40;99.90;;;;;;5111139;28;20508;-74
2023/04/23 10:27:33;;;;;;;2.10;0.82;;;21.30;99.90;;;;;;5111218;28;20299;-75
2023/04/23 10:30:01;;;;;;;0.85;0.85;;;21.20;99.90;;;;;;5110782;28;20232;-75
2023/04/23 10:32:32;;;;;;;0.88;0.88;;;21.00;99.90;;;;;;5111338;28;20561;-76
2023/04/23 10:34:59;;;;;;;1.40;1.13;;;20.80;99.90;;;;;;5110729;28;21083;-75
2023/04/23 10:37:27;;;;;;;3.17;1.52;;;20.90;99.90;;;;;;5111494;28;20209;-75
2023/04/23 10:39:55;;;;;;;1.73;1.10;;;20.70;99.90;;;;;;5110921;28;20231;-75
2023/04/23 10:42:23;;;;;;;1.45;1.35;;;21.00;99.90;;;;;;5114831;28;20236;-76
2023/04/23 10:44:50;;;;;;;1.50;1.02;;;21.30;99.90;;;;;;5117695;28;20243;-76
2023/04/23 10:47:19;;;;;;;2.72;1.95;;;21.30;99.90;;;;;;5117917;28;20232;-76
2023/04/23 10:49:49;;;;;;;3.13;1.70;;;21.60;99.90;;;;;;5117809;28;20200;-76
2023/04/23 10:52:18;;;;;;;1.38;1.33;;;21.80;99.90;;;;;;5117958;28;20236;-75
2023/04/23 10:54:48;;;;;;;1.77;1.05;;;22.10;99.90;;;;;;5117441;28;20667;-74
2023/04/23 10:57:15;;;;;;;1.35;1.25;;;21.50;99.90;;;;;;5117661;28;20200;-75
2023/04/23 10:59:52;;;;;;;4.15;1.23;;;21.30;99.90;;;;;;5117268;28;20231;-74
2023/04/23 11:02:19;;;;;;;1.05;0.95;;;21.00;99.90;;;;;;5117666;28;20239;-76
2023/04/23 11:04:54;;;;;;;1.52;1.17;;;21.00;99.90;;;;;;5117553;28;20318;-74
2023/04/23 11:07:26;;;;;;;1.95;1.10;;;20.70;99.90;;;;;;5117651;28;20200;-74
2023/04/23 11:09:55;;;;;;;1.73;1.45;;;20.30;99.90;;;;;;5117351;28;20240;-75
2023/04/23 11:12:32;;;;;;;2.45;1.50;;;19.90;99.90;;;;;;5117158;28;20254;-76
2023/04/23 11:15:09;;;;;;;1.55;0.85;;;19.70;99.90;;;;;;5117451;28;20203;-74
2023/04/23 11:18:04;;;;;;;1.17;0.90;;;19.40;99.90;;;;;;5117931;28;20257;-74
2023/04/23 11:20:33;;;;;;;2.25;1.08;;;19.60;99.90;;;;;;5117577;28;20752;-75
2023/04/23 11:23:00;;;;;;;2.05;0.80;;;19.80;99.90;;;;;;5117500;28;20228;-74
2023/04/23 11:25:29;;;;;;;1.33;1.10;;;19.70;99.90;;;;;;5117649;28;20248;-74
2023/04/23 11:27:57;;;;;;;1.35;0.90;;;19.70;99.90;;;;;;5117389;28;20212;-72
2023/04/23 11:30:25;;;;;;;1.80;1.70;;;19.40;99.90;;;;;;5117734;28;20209;-72
2023/04/23 11:32:54;;;;;;;2.17;1.58;;;19.40;99.90;;;;;;5116347;28;20224;-73
2023/04/23 11:35:23;;;;;;;2.63;1.60;;;18.90;99.90;;;;;;5117632;28;20621;-75
2023/04/23 11:37:51;;;;;;;4.80;1.30;;;18.40;99.90;;;;;;5117176;28;20240;-73
2023/04/23 11:40:19;;;;;;;4.03;1.10;;;18.10;99.90;;;;;;5117418;28;20260;-75
2023/04/23 11:42:48;;;;;;;3.17;1.25;;;17.60;99.90;;;;;;5117197;28;20236;-73
2023/04/23 11:45:16;;;;;;;2.65;1.13;;;17.10;99.90;;;;;;5117571;28;20295;-72
2023/04/23 11:47:44;;;;;;;2.97;1.25;;;16.70;99.90;;;;;;5116975;28;20235;-73
2023/04/23 11:50:11;;;;;;;1.60;1.45;;;16.50;99.90;;;;;;5117606;28;20223;-72
2023/04/23 11:52:38;;;;;;;5.82;1.48;;;16.20;99.90;;;;;;5117226;28;20205;-73
2023/04/23 11:55:08;;;;;;;4.30;2.38;;;16.10;99.90;;;;;;5113915;28;20239;-74
2023/04/23 11:57:37;;;;;;;5.18;1.45;;;16.00;99.90;;;;;;5114520;28;20235;-74
2023/04/23 12:00:13;;;;;;;4.43;1.65;;;15.80;99.90;;;;;;5113780;28;20197;-74
2023/04/23 12:02:50;;;;;;;3.47;1.40;;;15.60;99.90;;;;;;5114078;28;20295;-77
2023/04/23 12:05:20;;;;;;;2.65;1.13;;;15.50;99.90;;;;;;5113738;28;20583;-76
2023/04/23 12:07:49;;;;;;;6.78;1.98;;;15.30;99.90;;;;;;5113620;28;20247;-74
2023/04/23 12:10:20;;;;;;;3.92;1.90;;;15.20;99.90;;;;;;5113643;28;20213;-76
2023/04/23 12:12:51;;;;;;;6.20;1.98;;;15.00;99.90;;;;;;5113385;28;20235;-75
2023/04/23 12:15:18;;;;;;;2.53;1.48;;;14.90;99.90;;;;;;5113648;28;20615;-75
2023/04/23 12:17:50;;;;;;;2.63;1.63;;;14.90;99.90;;;;;;5113369;28;20201;-75
2023/04/23 12:20:19;;;;;;;2.88;1.60;;;14.90;99.90;;;;;;5113712;28;20344;-76
2023/04/23 12:22:45;;;;;;;1.85;1.55;;;15.10;99.90;;;;;;5113046;28;20204;-74
2023/04/23 12:25:12;;;;;;;2.20;0.90;;;15.10;99.90;;;;;;5113534;28;20196;-75
2023/04/23 12:27:43;;;;;;;1.15;1.02;;;15.00;99.90;;;;;;5113518;28;20676;-74
2023/04/23 12:30:12;;;;;;;4.10;1.92;;;14.90;99.90;;;;;;5113540;28;20205;-76
2023/04/23 12:32:39;;;;;;;1.98;0.82;;;14.90;99.90;;;;;;5113765;28;20270;-74
2023/04/23 12:35:08;;;;;;;3.17;1.50;;;15.00;99.90;;;;;;5113616;28;20201;-76
2023/04/23 12:37:37;;;;;;;4.97;1.45;;;14.90;99.90;;;;;;5113328;28;20664;-76
2023/04/23 12:40:06;;;;;;;1.50;1.35;;;14.80;99.90;;;;;;5113547;28;20205;-80
2023/04/23 12:42:34;;;;;;;1.83;1.00;;;14.20;99.90;;;;;;5113190;28;20204;-76
2023/04/23 12:45:08;;;;;;;4.07;1.00;;;13.90;99.90;;;;;;5113102;28;20200;-78
2023/04/23 12:47:35;;;;;;;1.02;0.70;;;13.60;99.90;;;;;;5113507;28;20253;-78
2023/04/23 12:50:04;;;;;;;3.53;1.35;;;13.60;99.90;;;;;;5112616;28;20672;-76
2023/04/23 12:52:31;;;;;;;2.85;0.82;;;13.60;99.90;;;;;;5112851;28;20205;-76
2023/04/23 12:55:00;;;;;;;1.63;1.10;;;13.50;99.90;;;;;;5112620;28;20204;-76